sensor_id;sensor_type;location;lat;lon;timestamp;pressure;altitude;pressure_sealevel;temperature;humidity
9035;BME280;4552;43.422;24.592;2022-09-29T00:01:07;98862.88;;;17.04;94.52
9035;BME280;4552;43.422;24.592;2022-09-29T00:03:35;98852.16;;;16.92;94.64
9035;BME280;4552;43.422;24.592;2022-09-29T00:06:11;98884.75;;;16.92;95.49
9035;BME280;4552;43.422;24.592;2022-09-29T00:08:38;98890.63;;;16.97;95.50
9035;BME280;4552;43.422;24.592;2022-09-29T00:11:08;98880.41;;;16.91;95.11
9035;BME280;4552;43.422;24.592;2022-09-29T00:13:35;98872.72;;;16.87;95.23
9035;BME280;4552;43.422;24.592;2022-09-29T00:16:03;98879.78;;;16.86;96.96
9035;BME280;4552;43.422;24.592;2022-09-29T00:18:31;98856.09;;;16.69;96.92
9035;BME280;4552;43.422;24.592;2022-09-29T00:20:59;98879.09;;;16.83;96.52
9035;BME280;4552;43.422;24.592;2022-09-29T00:23:29;98873.34;;;16.76;97.07
9035;BME280;4552;43.422;24.592;2022-09-29T00:26:04;98859.59;;;16.54;98.49
9035;BME280;4552;43.422;24.592;2022-09-29T00:28:32;98875.63;;;16.82;97.68
9035;BME280;4552;43.422;24.592;2022-09-29T00:31:01;98878.34;;;16.65;98.67
9035;BME280;4552;43.422;24.592;2022-09-29T00:33:29;98862.22;;;16.54;98.70
9035;BME280;4552;43.422;24.592;2022-09-29T00:36:02;98857.44;;;16.45;100.00
9035;BME280;4552;43.422;24.592;2022-09-29T00:38:33;98855.09;;;16.56;100.00
9035;BME280;4552;43.422;24.592;2022-09-29T00:41:01;98854.66;;;16.64;100.00
9035;BME280;4552;43.422;24.592;2022-09-29T00:43:57;98864.94;;;16.53;99.70
9035;BME280;4552;43.422;24.592;2022-09-29T00:46:30;98868.53;;;16.52;100.00
9035;BME280;4552;43.422;24.592;2022-09-29T00:49:02;98868.28;;;16.56;99.10
9035;BME280;4552;43.422;24.592;2022-09-29T00:51:32;98872.44;;;16.45;100.00
9035;BME280;4552;43.422;24.592;2022-09-29T00:54:04;98854.84;;;16.28;99.82
9035;BME280;4552;43.422;24.592;2022-09-29T00:56:36;98865.72;;;16.22;99.39
9035;BME280;4552;43.422;24.592;2022-09-29T00:59:07;98848.34;;;16.34;99.21
9035;BME280;4552;43.422;24.592;2022-09-29T01:01:35;98871.44;;;16.47;100.00
9035;BME280;4552;43.422;24.592;2022-09-29T01:04:06;98882.16;;;16.44;100.00
9035;BME280;4552;43.422;24.592;2022-09-29T01:06:38;98883.56;;;16.82;100.00
9035;BME280;4552;43.422;24.592;2022-09-29T01:09:10;98883.88;;;16.45;99.02
9035;BME280;4552;43.422;24.592;2022-09-29T01:11:39;98886.34;;;16.31;98.05
9035;BME280;4552;43.422;24.592;2022-09-29T01:14:08;98867.63;;;16.03;98.47
9035;BME280;4552;43.422;24.592;2022-09-29T01:16:36;98867.44;;;15.74;100.00
9035;BME280;4552;43.422;24.592;2022-09-29T01:19:08;98879.59;;;15.93;100.00
9035;BME280;4552;43.422;24.592;2022-09-29T01:21:47;98875.75;;;15.83;100.00
9035;BME280;4552;43.422;24.592;2022-09-29T01:24:51;98856.50;;;15.81;100.00
9035;BME280;4552;43.422;24.592;2022-09-29T01:30:39;98875.13;;;15.95;100.00
9035;BME280;4552;43.422;24.592;2022-09-29T01:33:29;98849.94;;;15.73;100.00
9035;BME280;4552;43.422;24.592;2022-09-29T01:36:02;98867.22;;;15.78;100.00
9035;BME280;4552;43.422;24.592;2022-09-29T01:38:51;98867.28;;;15.94;100.00
9035;BME280;4552;43.422;24.592;2022-09-29T01:41:28;98870.00;;;15.92;100.00
9035;BME280;4552;43.422;24.592;2022-09-29T01:44:02;98848.34;;;15.86;100.00
9035;BME280;4552;43.422;24.592;2022-09-29T01:46:37;98865.47;;;15.94;100.00
9035;BME280;4552;43.422;24.592;2022-09-29T01:49:05;98872.00;;;15.87;100.00
9035;BME280;4552;43.422;24.592;2022-09-29T01:51:39;98855.13;;;15.74;100.00
9035;BME280;4552;43.422;24.592;2022-09-29T01:54:12;98869.38;;;15.87;100.00
9035;BME280;4552;43.422;24.592;2022-09-29T01:56:44;98864.25;;;15.84;100.00
9035;BME280;4552;43.422;24.592;2022-09-29T01:59:18;98869.69;;;15.81;100.00
9035;BME280;4552;43.422;24.592;2022-09-29T02:01:50;98866.13;;;15.82;100.00
9035;BME280;4552;43.422;24.592;2022-09-29T02:04:23;98863.16;;;15.88;100.00
9035;BME280;4552;43.422;24.592;2022-09-29T02:06:57;98861.28;;;15.90;100.00
9035;BME280;4552;43.422;24.592;2022-09-29T02:09:29;98860.88;;;15.98;100.00
9035;BME280;4552;43.422;24.592;2022-09-29T02:12:00;98865.31;;;15.97;100.00
9035;BME280;4552;43.422;24.592;2022-09-29T02:14:31;98871.66;;;16.10;100.00
9035;BME280;4552;43.422;24.592;2022-09-29T02:17:06;98853.22;;;15.93;100.00
9035;BME280;4552;43.422;24.592;2022-09-29T02:19:39;98869.84;;;15.95;100.00
9035;BME280;4552;43.422;24.592;2022-09-29T02:22:08;98878.25;;;16.02;100.00
9035;BME280;4552;43.422;24.592;2022-09-29T02:24:35;98870.06;;;15.91;100.00
9035;BME280;4552;43.422;24.592;2022-09-29T02:27:02;98868.16;;;15.77;100.00
9035;BME280;4552;43.422;24.592;2022-09-29T02:29:31;98876.16;;;15.76;100.00
9035;BME280;4552;43.422;24.592;2022-09-29T02:31:59;98864.28;;;15.67;100.00
9035;BME280;4552;43.422;24.592;2022-09-29T02:34:30;98852.56;;;15.55;100.00
9035;BME280;4552;43.422;24.592;2022-09-29T02:37:04;98882.09;;;15.62;100.00
9035;BME280;4552;43.422;24.592;2022-09-29T02:39:41;98868.56;;;15.52;100.00
9035;BME280;4552;43.422;24.592;2022-09-29T02:42:21;98876.75;;;15.63;100.00
9035;BME280;4552;43.422;24.592;2022-09-29T02:45:14;98874.81;;;15.50;100.00
9035;BME280;4552;43.422;24.592;2022-09-29T02:48:10;98866.59;;;15.39;100.00
9035;BME280;4552;43.422;24.592;2022-09-29T02:51:03;98874.41;;;15.92;100.00
9035;BME280;4552;43.422;24.592;2022-09-29T02:53:49;98872.66;;;15.75;100.00
9035;BME280;4552;43.422;24.592;2022-09-29T02:56:24;98870.50;;;15.66;100.00
9035;BME280;4552;43.422;24.592;2022-09-29T02:58:58;98849.16;;;15.53;100.00
9035;BME280;4552;43.422;24.592;2022-09-29T03:01:29;98874.19;;;15.62;100.00
9035;BME280;4552;43.422;24.592;2022-09-29T03:03:57;98892.50;;;15.65;100.00
9035;BME280;4552;43.422;24.592;2022-09-29T03:06:26;98891.91;;;15.77;100.00
9035;BME280;4552;43.422;24.592;2022-09-29T03:08:54;98889.72;;;15.68;100.00
9035;BME280;4552;43.422;24.592;2022-09-29T03:11:21;98888.09;;;15.66;100.00
9035;BME280;4552;43.422;24.592;2022-09-29T03:13:49;98870.09;;;15.56;100.00
9035;BME280;4552;43.422;24.592;2022-09-29T03:16:16;98871.63;;;15.60;100.00
9035;BME280;4552;43.422;24.592;2022-09-29T03:18:43;98877.31;;;15.70;100.00
9035;BME280;4552;43.422;24.592;2022-09-29T03:21:11;98877.78;;;15.78;100.00
9035;BME280;4552;43.422;24.592;2022-09-29T03:23:41;98855.34;;;15.70;100.00
9035;BME280;4552;43.422;24.592;2022-09-29T03:26:08;98864.19;;;15.69;100.00
9035;BME280;4552;43.422;24.592;2022-09-29T03:28:35;98864.91;;;15.72;100.00
9035;BME280;4552;43.422;24.592;2022-09-29T03:31:03;98873.28;;;15.80;100.00
9035;BME280;4552;43.422;24.592;2022-09-29T03:33:31;98833.78;;;15.62;100.00
9035;BME280;4552;43.422;24.592;2022-09-29T03:35:58;98881.72;;;15.87;100.00
9035;BME280;4552;43.422;24.592;2022-09-29T03:38:25;98882.00;;;15.98;100.00
9035;BME280;4552;43.422;24.592;2022-09-29T03:40:54;98885.66;;;16.12;100.00
9035;BME280;4552;43.422;24.592;2022-09-29T03:43:22;98880.38;;;16.12;98.96
9035;BME280;4552;43.422;24.592;2022-09-29T03:45:49;98884.72;;;15.96;100.00
9035;BME280;4552;43.422;24.592;2022-09-29T03:48:17;98879.06;;;15.87;100.00
9035;BME280;4552;43.422;24.592;2022-09-29T03:50:45;98845.97;;;15.64;100.00
9035;BME280;4552;43.422;24.592;2022-09-29T03:53:13;98861.47;;;15.70;100.00
9035;BME280;4552;43.422;24.592;2022-09-29T03:55:43;98882.50;;;15.89;100.00
9035;BME280;4552;43.422;24.592;2022-09-29T03:58:15;98887.22;;;15.99;100.00
9035;BME280;4552;43.422;24.592;2022-09-29T04:00:43;98879.13;;;16.02;99.89
9035;BME280;4552;43.422;24.592;2022-09-29T04:03:10;98886.09;;;16.03;100.00
9035;BME280;4552;43.422;24.592;2022-09-29T04:05:38;98883.53;;;16.02;99.74
9035;BME280;4552;43.422;24.592;2022-09-29T04:08:05;98867.34;;;15.92;100.00
9035;BME280;4552;43.422;24.592;2022-09-29T04:10:33;98877.44;;;16.01;98.25
9035;BME280;4552;43.422;24.592;2022-09-29T04:13:03;98881.56;;;16.22;98.82
9035;BME280;4552;43.422;24.592;2022-09-29T04:15:36;98884.34;;;16.36;98.04
9035;BME280;4552;43.422;24.592;2022-09-29T04:18:03;98889.63;;;16.36;96.24
9035;BME280;4552;43.422;24.592;2022-09-29T04:20:31;98890.69;;;16.32;96.42
9035;BME280;4552;43.422;24.592;2022-09-29T04:22:58;98886.34;;;16.31;96.77
9035;BME280;4552;43.422;24.592;2022-09-29T04:25:26;98885.41;;;16.32;97.51
9035;BME280;4552;43.422;24.592;2022-09-29T04:27:53;98880.47;;;16.26;96.87
9035;BME280;4552;43.422;24.592;2022-09-29T04:30:20;98884.72;;;16.46;96.73
9035;BME280;4552;43.422;24.592;2022-09-29T04:32:59;98884.47;;;16.50;95.56
9035;BME280;4552;43.422;24.592;2022-09-29T04:35:27;98885.00;;;16.88;94.07
9035;BME280;4552;43.422;24.592;2022-09-29T04:37:54;98888.69;;;16.85;95.07
9035;BME280;4552;43.422;24.592;2022-09-29T04:40:24;98879.78;;;16.71;94.68
9035;BME280;4552;43.422;24.592;2022-09-29T04:42:51;98839.75;;;16.47;94.69
9035;BME280;4552;43.422;24.592;2022-09-29T04:45:18;98869.31;;;16.69;94.47
9035;BME280;4552;43.422;24.592;2022-09-29T04:47:49;98872.28;;;16.63;93.99
9035;BME280;4552;43.422;24.592;2022-09-29T04:50:17;98870.69;;;16.76;94.08
9035;BME280;4552;43.422;24.592;2022-09-29T04:52:44;98881.84;;;16.81;93.28
9035;BME280;4552;43.422;24.592;2022-09-29T04:55:12;98871.09;;;17.00;92.63
9035;BME280;4552;43.422;24.592;2022-09-29T04:57:40;98882.94;;;17.08;90.79
9035;BME280;4552;43.422;24.592;2022-09-29T05:00:09;98908.44;;;17.25;89.44
9035;BME280;4552;43.422;24.592;2022-09-29T05:02:37;98894.75;;;17.33;90.17
9035;BME280;4552;43.422;24.592;2022-09-29T05:05:08;98909.59;;;17.51;89.90
9035;BME280;4552;43.422;24.592;2022-09-29T05:07:37;98900.06;;;17.48;90.72
9035;BME280;4552;43.422;24.592;2022-09-29T05:10:07;98903.69;;;17.91;88.97
9035;BME280;4552;43.422;24.592;2022-09-29T05:12:34;98877.66;;;17.83;89.61
9035;BME280;4552;43.422;24.592;2022-09-29T05:15:02;98892.91;;;17.94;88.52
9035;BME280;4552;43.422;24.592;2022-09-29T05:17:30;98878.06;;;18.05;87.06
9035;BME280;4552;43.422;24.592;2022-09-29T05:19:58;98874.38;;;18.22;85.81
9035;BME280;4552;43.422;24.592;2022-09-29T05:22:28;98916.03;;;18.48;84.41
9035;BME280;4552;43.422;24.592;2022-09-29T05:24:57;98907.41;;;18.58;84.68
9035;BME280;4552;43.422;24.592;2022-09-29T05:27:24;98902.06;;;18.46;83.76
9035;BME280;4552;43.422;24.592;2022-09-29T05:29:51;98889.88;;;18.28;85.83
9035;BME280;4552;43.422;24.592;2022-09-29T05:32:19;98883.59;;;18.44;86.56
9035;BME280;4552;43.422;24.592;2022-09-29T05:34:46;98882.94;;;18.41;86.96
9035;BME280;4552;43.422;24.592;2022-09-29T05:37:15;98857.06;;;18.30;87.35
9035;BME280;4552;43.422;24.592;2022-09-29T05:39:44;98879.91;;;18.47;87.67
9035;BME280;4552;43.422;24.592;2022-09-29T05:42:12;98878.94;;;18.48;88.31
9035;BME280;4552;43.422;24.592;2022-09-29T05:44:39;98874.78;;;18.58;88.18
9035;BME280;4552;43.422;24.592;2022-09-29T05:47:06;98849.78;;;18.34;88.48
9035;BME280;4552;43.422;24.592;2022-09-29T05:49:33;98869.00;;;18.51;88.95
9035;BME280;4552;43.422;24.592;2022-09-29T05:52:01;98861.72;;;18.55;87.44
9035;BME280;4552;43.422;24.592;2022-09-29T05:54:28;98874.13;;;18.54;87.82
9035;BME280;4552;43.422;24.592;2022-09-29T05:56:56;98894.72;;;18.77;87.44
9035;BME280;4552;43.422;24.592;2022-09-29T05:59:25;98874.31;;;18.92;86.43
9035;BME280;4552;43.422;24.592;2022-09-29T06:01:52;98881.84;;;19.12;86.01
9035;BME280;4552;43.422;24.592;2022-09-29T06:04:19;98896.34;;;19.21;83.26
9035;BME280;4552;43.422;24.592;2022-09-29T06:06:46;98891.56;;;19.52;82.34
9035;BME280;4552;43.422;24.592;2022-09-29T06:09:15;98909.81;;;19.44;82.49
9035;BME280;4552;43.422;24.592;2022-09-29T06:11:46;98910.41;;;19.35;83.63
9035;BME280;4552;43.422;24.592;2022-09-29T06:14:15;98917.16;;;19.53;83.54
9035;BME280;4552;43.422;24.592;2022-09-29T06:16:42;98918.88;;;19.54;81.64
9035;BME280;4552;43.422;24.592;2022-09-29T06:19:09;98925.88;;;19.82;82.04
9035;BME280;4552;43.422;24.592;2022-09-29T06:21:38;98922.09;;;19.59;83.66
9035;BME280;4552;43.422;24.592;2022-09-29T06:24:05;98925.75;;;19.44;84.46
9035;BME280;4552;43.422;24.592;2022-09-29T06:26:33;98934.56;;;19.45;84.41
9035;BME280;4552;43.422;24.592;2022-09-29T06:29:00;98941.53;;;19.19;84.85
9035;BME280;4552;43.422;24.592;2022-09-29T06:31:31;98908.38;;;18.71;84.55
9035;BME280;4552;43.422;24.592;2022-09-29T06:33:59;98903.38;;;18.67;84.90
9035;BME280;4552;43.422;24.592;2022-09-29T06:36:33;98929.59;;;18.71;85.01
9035;BME280;4552;43.422;24.592;2022-09-29T06:39:18;98926.16;;;18.69;84.34
9035;BME280;4552;43.422;24.592;2022-09-29T06:41:45;98903.66;;;19.03;82.56
9035;BME280;4552;43.422;24.592;2022-09-29T06:44:18;98895.25;;;19.37;79.92
9035;BME280;4552;43.422;24.592;2022-09-29T06:46:46;98909.03;;;19.69;78.33
9035;BME280;4552;43.422;24.592;2022-09-29T06:49:16;98910.50;;;19.60;77.68
9035;BME280;4552;43.422;24.592;2022-09-29T06:51:43;98934.97;;;19.78;78.73
9035;BME280;4552;43.422;24.592;2022-09-29T06:54:11;98935.56;;;19.95;77.03
9035;BME280;4552;43.422;24.592;2022-09-29T06:56:39;98932.03;;;20.34;76.21
9035;BME280;4552;43.422;24.592;2022-09-29T06:59:06;98933.81;;;20.33;76.34
9035;BME280;4552;43.422;24.592;2022-09-29T07:01:33;98913.16;;;20.62;75.49
9035;BME280;4552;43.422;24.592;2022-09-29T07:04:01;98920.09;;;20.65;74.50
9035;BME280;4552;43.422;24.592;2022-09-29T07:06:29;98925.91;;;20.82;74.97
9035;BME280;4552;43.422;24.592;2022-09-29T07:08:57;98930.78;;;21.01;73.86
9035;BME280;4552;43.422;24.592;2022-09-29T07:11:26;98906.66;;;21.27;72.71
9035;BME280;4552;43.422;24.592;2022-09-29T07:13:54;98912.81;;;21.28;71.23
9035;BME280;4552;43.422;24.592;2022-09-29T07:16:21;98926.19;;;21.39;71.41
9035;BME280;4552;43.422;24.592;2022-09-29T07:18:50;98933.22;;;21.40;70.05
9035;BME280;4552;43.422;24.592;2022-09-29T07:21:19;98929.78;;;21.50;70.02
9035;BME280;4552;43.422;24.592;2022-09-29T07:23:46;98930.81;;;21.84;69.25
9035;BME280;4552;43.422;24.592;2022-09-29T07:26:15;98929.06;;;22.06;67.62
9035;BME280;4552;43.422;24.592;2022-09-29T07:28:43;98938.25;;;22.59;66.49
9035;BME280;4552;43.422;24.592;2022-09-29T07:31:12;98915.78;;;22.40;65.49
9035;BME280;4552;43.422;24.592;2022-09-29T07:33:39;98935.97;;;22.77;65.66
9035;BME280;4552;43.422;24.592;2022-09-29T07:36:07;98917.13;;;23.00;64.08
9035;BME280;4552;43.422;24.592;2022-09-29T07:38:36;98923.22;;;23.24;64.02
9035;BME280;4552;43.422;24.592;2022-09-29T07:41:05;98906.88;;;23.38;62.67
9035;BME280;4552;43.422;24.592;2022-09-29T07:43:32;98927.84;;;23.54;61.75
9035;BME280;4552;43.422;24.592;2022-09-29T07:46:00;98912.19;;;23.49;61.63
9035;BME280;4552;43.422;24.592;2022-09-29T07:48:30;98950.72;;;23.78;60.77
9035;BME280;4552;43.422;24.592;2022-09-29T07:51:01;98936.59;;;23.87;60.01
9035;BME280;4552;43.422;24.592;2022-09-29T07:53:29;98912.09;;;23.82;59.67
9035;BME280;4552;43.422;24.592;2022-09-29T07:56:03;98957.91;;;24.51;58.47
9035;BME280;4552;43.422;24.592;2022-09-29T07:58:32;98923.88;;;24.62;58.26
9035;BME280;4552;43.422;24.592;2022-09-29T08:01:02;98927.00;;;24.88;57.02
9035;BME280;4552;43.422;24.592;2022-09-29T08:03:31;98958.78;;;25.41;54.54
9035;BME280;4552;43.422;24.592;2022-09-29T08:06:05;98967.44;;;25.64;50.31
9035;BME280;4552;43.422;24.592;2022-09-29T08:08:34;98962.09;;;25.93;48.62
9035;BME280;4552;43.422;24.592;2022-09-29T08:11:04;98951.94;;;26.15;47.62
9035;BME280;4552;43.422;24.592;2022-09-29T08:13:32;98956.56;;;26.51;47.18
9035;BME280;4552;43.422;24.592;2022-09-29T08:16:04;98957.53;;;26.50;45.20
9035;BME280;4552;43.422;24.592;2022-09-29T08:18:34;98952.75;;;26.44;42.94
9035;BME280;4552;43.422;24.592;2022-09-29T08:21:02;98969.16;;;26.41;40.93
9035;BME280;4552;43.422;24.592;2022-09-29T08:23:42;98959.06;;;26.62;41.27
9035;BME280;4552;43.422;24.592;2022-09-29T08:26:15;98947.34;;;26.73;41.29
9035;BME280;4552;43.422;24.592;2022-09-29T08:28:43;98953.81;;;26.80;41.46
9035;BME280;4552;43.422;24.592;2022-09-29T08:31:14;98933.63;;;26.76;41.64
9035;BME280;4552;43.422;24.592;2022-09-29T08:33:55;98964.81;;;26.96;40.73
9035;BME280;4552;43.422;24.592;2022-09-29T08:36:26;98940.13;;;27.10;41.11
9035;BME280;4552;43.422;24.592;2022-09-29T08:38:55;98943.53;;;27.02;40.40
9035;BME280;4552;43.422;24.592;2022-09-29T08:41:35;98940.22;;;27.28;40.41
9035;BME280;4552;43.422;24.592;2022-09-29T08:44:11;98956.00;;;27.03;38.18
9035;BME280;4552;43.422;24.592;2022-09-29T08:46:45;98973.22;;;27.10;39.11
9035;BME280;4552;43.422;24.592;2022-09-29T08:49:21;98989.69;;;26.88;37.95
9035;BME280;4552;43.422;24.592;2022-09-29T08:51:52;98981.28;;;27.10;37.57
9035;BME280;4552;43.422;24.592;2022-09-29T08:54:26;98986.84;;;26.99;36.96
9035;BME280;4552;43.422;24.592;2022-09-29T08:57:03;98986.16;;;26.97;38.45
9035;BME280;4552;43.422;24.592;2022-09-29T08:59:32;98955.16;;;26.66;38.01
9035;BME280;4552;43.422;24.592;2022-09-29T09:02:23;98986.38;;;27.13;38.60
9035;BME280;4552;43.422;24.592;2022-09-29T09:05:16;98996.59;;;27.00;37.28
9035;BME280;4552;43.422;24.592;2022-09-29T09:07:53;98964.88;;;26.77;38.42
9035;BME280;4552;43.422;24.592;2022-09-29T09:10:32;98965.56;;;26.60;37.86
9035;BME280;4552;43.422;24.592;2022-09-29T09:13:13;99000.06;;;26.83;38.37
9035;BME280;4552;43.422;24.592;2022-09-29T09:16:02;98979.84;;;26.79;38.07
9035;BME280;4552;43.422;24.592;2022-09-29T09:19:11;99001.59;;;27.23;38.67
9035;BME280;4552;43.422;24.592;2022-09-29T09:21:52;99014.97;;;27.05;39.17
9035;BME280;4552;43.422;24.592;2022-09-29T09:24:28;99009.09;;;27.19;38.63
9035;BME280;4552;43.422;24.592;2022-09-29T09:27:02;99007.09;;;27.40;39.00
9035;BME280;4552;43.422;24.592;2022-09-29T09:29:36;98972.44;;;27.37;39.91
9035;BME280;4552;43.422;24.592;2022-09-29T09:32:07;98972.44;;;27.55;37.92
9035;BME280;4552;43.422;24.592;2022-09-29T09:34:41;99007.84;;;28.04;35.74
9035;BME280;4552;43.422;24.592;2022-09-29T09:37:13;99006.19;;;27.67;35.83
9035;BME280;4552;43.422;24.592;2022-09-29T09:39:46;98990.66;;;27.61;35.69
9035;BME280;4552;43.422;24.592;2022-09-29T09:42:17;99030.13;;;27.97;36.74
9035;BME280;4552;43.422;24.592;2022-09-29T09:48:28;98993.28;;;28.15;35.17
9035;BME280;4552;43.422;24.592;2022-09-29T09:50:58;98999.66;;;28.14;35.60
9035;BME280;4552;43.422;24.592;2022-09-29T09:53:40;99001.53;;;27.86;34.32
9035;BME280;4552;43.422;24.592;2022-09-29T10:03:03;99003.16;;;27.79;35.54
9035;BME280;4552;43.422;24.592;2022-09-29T10:16:58;99009.91;;;27.39;35.75
9035;BME280;4552;43.422;24.592;2022-09-29T10:28:51;99010.81;;;27.30;35.78
9035;BME280;4552;43.422;24.592;2022-09-29T10:31:25;99025.38;;;27.17;35.68
9035;BME280;4552;43.422;24.592;2022-09-29T10:33:57;99025.78;;;27.23;35.09
9035;BME280;4552;43.422;24.592;2022-09-29T10:36:46;99032.47;;;27.19;35.01
9035;BME280;4552;43.422;24.592;2022-09-29T10:39:30;99017.88;;;27.21;33.56
9035;BME280;4552;43.422;24.592;2022-09-29T10:41:57;99012.22;;;27.14;33.57
9035;BME280;4552;43.422;24.592;2022-09-29T10:44:30;99017.88;;;27.31;34.29
9035;BME280;4552;43.422;24.592;2022-09-29T10:46:58;99028.06;;;27.27;35.23
9035;BME280;4552;43.422;24.592;2022-09-29T10:49:31;99009.41;;;27.26;34.93
9035;BME280;4552;43.422;24.592;2022-09-29T10:52:03;99021.84;;;27.27;34.34
9035;BME280;4552;43.422;24.592;2022-09-29T10:54:34;99017.06;;;27.11;34.94
9035;BME280;4552;43.422;24.592;2022-09-29T10:57:11;99005.75;;;27.07;34.31
9035;BME280;4552;43.422;24.592;2022-09-29T10:59:45;98996.69;;;27.08;34.34
9035;BME280;4552;43.422;24.592;2022-09-29T11:02:22;99002.50;;;27.13;35.54
9035;BME280;4552;43.422;24.592;2022-09-29T11:04:55;99001.44;;;27.24;36.08
9035;BME280;4552;43.422;24.592;2022-09-29T11:07:27;99012.94;;;27.17;35.98
9035;BME280;4552;43.422;24.592;2022-09-29T11:09:57;98999.69;;;27.05;36.70
9035;BME280;4552;43.422;24.592;2022-09-29T11:12:33;98998.19;;;27.30;36.74
9035;BME280;4552;43.422;24.592;2022-09-29T11:15:22;99008.28;;;27.55;36.16
9035;BME280;4552;43.422;24.592;2022-09-29T11:17:51;99005.03;;;27.52;35.90
9035;BME280;4552;43.422;24.592;2022-09-29T11:20:24;99015.81;;;27.42;36.09
9035;BME280;4552;43.422;24.592;2022-09-29T11:23:02;99000.25;;;27.46;36.37
9035;BME280;4552;43.422;24.592;2022-09-29T11:28:44;99001.75;;;27.21;36.83
9035;BME280;4552;43.422;24.592;2022-09-29T11:31:26;98998.03;;;27.32;36.99
9035;BME280;4552;43.422;24.592;2022-09-29T11:34:10;98989.63;;;27.44;36.35
9035;BME280;4552;43.422;24.592;2022-09-29T11:36:54;99012.31;;;27.42;37.66
9035;BME280;4552;43.422;24.592;2022-09-29T11:39:50;98983.81;;;27.49;37.46
9035;BME280;4552;43.422;24.592;2022-09-29T11:42:35;98991.06;;;27.83;37.68
9035;BME280;4552;43.422;24.592;2022-09-29T11:45:19;99002.53;;;27.41;37.04
9035;BME280;4552;43.422;24.592;2022-09-29T11:51:09;98993.47;;;27.42;36.57
9035;BME280;4552;43.422;24.592;2022-09-29T11:54:02;98981.28;;;27.47;37.18
9035;BME280;4552;43.422;24.592;2022-09-29T11:56:51;99004.31;;;27.50;37.25
9035;BME280;4552;43.422;24.592;2022-09-29T11:59:57;99010.78;;;27.84;35.65
9035;BME280;4552;43.422;24.592;2022-09-29T12:02:59;98997.81;;;27.52;36.18
9035;BME280;4552;43.422;24.592;2022-09-29T12:05:48;99008.50;;;27.35;36.58
9035;BME280;4552;43.422;24.592;2022-09-29T12:08:29;99010.59;;;27.41;36.81
9035;BME280;4552;43.422;24.592;2022-09-29T12:11:20;99011.31;;;27.43;36.72
9035;BME280;4552;43.422;24.592;2022-09-29T12:13:58;99013.75;;;27.63;35.97
9035;BME280;4552;43.422;24.592;2022-09-29T12:16:32;99010.75;;;27.39;36.03
9035;BME280;4552;43.422;24.592;2022-09-29T12:19:09;99001.59;;;26.86;36.25
9035;BME280;4552;43.422;24.592;2022-09-29T12:21:45;99017.81;;;27.03;36.82
9035;BME280;4552;43.422;24.592;2022-09-29T12:24:17;99001.88;;;26.83;37.06
9035;BME280;4552;43.422;24.592;2022-09-29T12:27:03;99017.16;;;26.82;37.06
9035;BME280;4552;43.422;24.592;2022-09-29T12:29:36;99005.28;;;26.56;37.46
9035;BME280;4552;43.422;24.592;2022-09-29T12:32:12;99016.03;;;26.56;37.75
9035;BME280;4552;43.422;24.592;2022-09-29T12:34:46;99007.84;;;26.58;37.51
9035;BME280;4552;43.422;24.592;2022-09-29T12:37:19;99001.63;;;26.57;37.50
9035;BME280;4552;43.422;24.592;2022-09-29T12:39:58;99030.88;;;26.79;37.10
9035;BME280;4552;43.422;24.592;2022-09-29T12:42:42;99021.69;;;26.82;37.29
9035;BME280;4552;43.422;24.592;2022-09-29T12:45:17;99017.16;;;26.82;36.93
9035;BME280;4552;43.422;24.592;2022-09-29T12:47:58;99019.53;;;26.85;37.09
9035;BME280;4552;43.422;24.592;2022-09-29T12:50:35;99023.78;;;26.88;36.94
9035;BME280;4552;43.422;24.592;2022-09-29T12:53:11;99025.34;;;26.90;37.31
9035;BME280;4552;43.422;24.592;2022-09-29T12:55:47;99002.59;;;26.85;37.46
9035;BME280;4552;43.422;24.592;2022-09-29T12:58:38;98996.44;;;26.65;37.54
9035;BME280;4552;43.422;24.592;2022-09-29T13:01:21;99005.13;;;26.86;37.29
9035;BME280;4552;43.422;24.592;2022-09-29T13:04:16;99014.72;;;26.89;36.84
9035;BME280;4552;43.422;24.592;2022-09-29T13:07:18;99034.03;;;27.11;36.00
9035;BME280;4552;43.422;24.592;2022-09-29T13:16:54;99020.81;;;26.91;37.94
9035;BME280;4552;43.422;24.592;2022-09-29T13:19:45;99018.72;;;26.85;37.79
9035;BME280;4552;43.422;24.592;2022-09-29T13:29:12;98989.75;;;26.50;37.90
9035;BME280;4552;43.422;24.592;2022-09-29T13:31:58;99007.41;;;26.72;37.35
9035;BME280;4552;43.422;24.592;2022-09-29T13:34:38;98997.94;;;26.77;37.95
9035;BME280;4552;43.422;24.592;2022-09-29T13:40:28;98983.34;;;26.89;38.02
9035;BME280;4552;43.422;24.592;2022-09-29T13:43:37;98990.34;;;26.73;37.65
9035;BME280;4552;43.422;24.592;2022-09-29T13:56:30;98991.28;;;26.62;38.68
9035;BME280;4552;43.422;24.592;2022-09-29T13:59:12;99005.28;;;26.75;39.10
9035;BME280;4552;43.422;24.592;2022-09-29T14:01:43;98997.94;;;26.77;38.85
9035;BME280;4552;43.422;24.592;2022-09-29T14:04:51;99018.59;;;26.77;39.43
9035;BME280;4552;43.422;24.592;2022-09-29T14:07:39;98991.75;;;26.48;39.97
9035;BME280;4552;43.422;24.592;2022-09-29T14:10:25;99012.38;;;26.48;40.57
9035;BME280;4552;43.422;24.592;2022-09-29T14:35:48;99005.28;;;25.71;42.26
9035;BME280;4552;43.422;24.592;2022-09-29T14:38:23;99021.66;;;25.87;41.92
9035;BME280;4552;43.422;24.592;2022-09-29T14:41:00;99023.66;;;25.94;42.37
9035;BME280;4552;43.422;24.592;2022-09-29T14:43:37;99033.81;;;25.81;42.84
9035;BME280;4552;43.422;24.592;2022-09-29T14:49:48;99007.94;;;25.61;43.21
9035;BME280;4552;43.422;24.592;2022-09-29T15:01:22;99037.97;;;25.55;44.42
9035;BME280;4552;43.422;24.592;2022-09-29T15:04:11;99041.81;;;25.32;44.73
9035;BME280;4552;43.422;24.592;2022-09-29T15:38:47;99059.75;;;25.11;46.84
9035;BME280;4552;43.422;24.592;2022-09-29T15:41:18;99045.63;;;24.79;47.63
9035;BME280;4552;43.422;24.592;2022-09-29T15:43:57;99043.25;;;24.85;47.81
9035;BME280;4552;43.422;24.592;2022-09-29T15:46:47;99054.19;;;24.73;48.67
9035;BME280;4552;43.422;24.592;2022-09-29T15:49:34;99054.91;;;24.64;49.07
9035;BME280;4552;43.422;24.592;2022-09-29T15:52:09;99027.28;;;24.43;49.40
9035;BME280;4552;43.422;24.592;2022-09-29T15:58:34;99042.81;;;24.80;48.91
9035;BME280;4552;43.422;24.592;2022-09-29T16:03:58;99062.56;;;24.68;49.97